Weather History for KCVX - March, 2014

Change the Weather History Date:

Monday, March 10, 2014

  Actual Average Record
Temperature  
Mean Temperature 36 °F -  
Max Temperature 45 °F 32 °F 51 °F (2015)
Min Temperature 26 °F 16 °F -5 °F (2008)
Degree Days  
Heating Degree Days 30    
Moisture  
Dew Point 30 °F    
Average Humidity 74    
Maximum Humidity 97    
Minimum Humidity 59    
Precipitation  
Precipitation 0.00 in - - ()
Sea Level Pressure  
Sea Level Pressure 29.57 in    
Wind  
Wind Speed 9 mph (SW)    
Max Wind Speed 18 mph    
Max Gust Speed 25 mph    
Visibility 9 miles    
Events      
Averages and records for this station are not official NWS values.
T = Trace of Precipitation, MM = Missing Value Source: NWS Daily Summary

Daily Weather History Graph

Daily Weather History Graph

Search for Another Location

Airport or City:

Trip Planner

Search our weather history database for the weather conditions in past years. The results will help you decide how hot, cold, wet, or windy it might be!

Date:

Astronomy

Mar. 10, 2014 Rise Set
Actual Time 8:02 AM EDT 7:40 PM EDT
Civil Twilight 7:33 AM EDT 8:09 PM EDT
Nautical Twilight 6:59 AM EDT 8:44 PM EDT
Astronomical Twilight 6:24 AM EDT 9:18 PM EDT
Moon 2:12 PM EDT (3/10) 4:25 AM EDT (3/10)
Length of Visible Light 12h 36m
Length of Day
11h 37m
Waxing Gibbous, 70% of the Moon is Illuminated
Mar 10
Waxing Gibbous
Mar 16
Full
Mar 23
Last Quarter
Mar 30
New
Apr 7
First Quarter

Hourly Weather History & Observations

Time (EDT) Temp. Windchill Dew Point Humidity Pressure Visibility Wind Dir Wind Speed Gust Speed Precip Events Conditions
12:14 AM 36.5 °F 28.2 °F 27.3 °F 69% 29.68 in 10.0 mi SW 12.7 mph 20.7 mph N/A   Overcast
12:35 AM 36.1 °F 28.2 °F 27.5 °F 71% 29.68 in 10.0 mi SW 11.5 mph 19.6 mph N/A   Overcast
12:54 AM 36.1 °F 27.7 °F 27.9 °F 72% 29.68 in 10.0 mi SW 12.7 mph - N/A   Overcast
1:14 AM 36.0 °F 27.1 °F 27.9 °F 72% 29.67 in 10.0 mi SW 13.8 mph - N/A   Overcast
1:35 AM 36.0 °F 28.0 °F 28.2 °F 73% 29.67 in 10.0 mi SW 11.5 mph 18.4 mph N/A   Scattered Clouds
1:54 AM 36.1 °F 28.2 °F 28.4 °F 73% 29.67 in 10.0 mi SW 11.5 mph 17.3 mph N/A   Mostly Cloudy
2:14 AM 36.5 °F 28.2 °F 28.8 °F 74% 29.66 in 10.0 mi SW 12.7 mph - N/A   Overcast
2:35 AM 36.1 °F 29.3 °F 28.9 °F 75% 29.66 in 10.0 mi SW 9.2 mph - N/A   Overcast
2:54 AM 36.0 °F 29.0 °F 28.9 °F 76% 29.66 in 10.0 mi SW 9.2 mph - N/A   Overcast
3:14 AM 35.8 °F 28.3 °F 28.9 °F 76% 29.65 in 10.0 mi SW 10.4 mph - N/A   Scattered Clouds
3:35 AM 35.6 °F 28.6 °F 29.1 °F 77% 29.66 in 10.0 mi SW 9.2 mph - N/A   Clear
3:54 AM 35.2 °F 30.3 °F 29.1 °F 78% 29.65 in 10.0 mi SW 5.8 mph - N/A   Scattered Clouds
4:15 AM 35.2 °F 30.3 °F 29.1 °F 78% 29.65 in 10.0 mi SW 5.8 mph - N/A   Overcast
4:35 AM 35.1 °F 32.2 °F 29.1 °F 79% 29.64 in 10.0 mi SSE 3.5 mph - N/A   Mostly Cloudy
4:54 AM 34.2 °F - 28.9 °F 81% 29.64 in 10.0 mi Calm Calm - N/A   Scattered Clouds
5:15 AM 34.2 °F 31.2 °F 28.8 °F 81% 29.63 in 10.0 mi SSW 3.5 mph - N/A   Mostly Cloudy
5:34 AM 34.0 °F - 28.4 °F 80% 29.62 in 10.0 mi Calm Calm - N/A   Scattered Clouds
5:54 AM 32.9 °F - 28.2 °F 83% 29.62 in 10.0 mi Calm Calm - N/A   Clear
6:15 AM 31.1 °F 26.4 °F 27.0 °F 85% 29.60 in 10.0 mi SE 4.6 mph - N/A   Clear
6:34 AM 30.0 °F 26.5 °F 26.4 °F 86% 29.61 in 7.0 mi East 3.5 mph - N/A   Clear
6:54 AM 28.4 °F - 25.0 °F 87% 29.62 in 7.0 mi Calm Calm - N/A   Clear
7:15 AM 26.8 °F 21.4 °F 25.0 °F 93% 29.62 in 5.0 mi ESE 4.6 mph - N/A   Scattered Clouds
7:34 AM 27.0 °F 23.0 °F 25.7 °F 95% 29.62 in 5.0 mi ESE 3.5 mph - N/A   Scattered Clouds
7:54 AM 27.9 °F 24.0 °F 26.6 °F 95% 29.62 in 5.0 mi ESE 3.5 mph - N/A   Clear
8:15 AM 27.1 °F 23.2 °F 25.9 °F 95% 29.62 in 4.0 mi ESE 3.5 mph - N/A   Clear
8:34 AM 26.8 °F - 25.7 °F 96% 29.62 in 3.0 mi Calm Calm - N/A   Clear
8:54 AM 26.6 °F 21.2 °F 25.9 °F 97% 29.60 in 3.0 mi SE 4.6 mph - N/A   Clear
9:15 AM 30.2 °F 24.3 °F 29.1 °F 96% 29.60 in 4.0 mi SE 5.8 mph - N/A   Clear
9:34 AM 32.4 °F 27.9 °F 30.4 °F 92% 29.60 in 5.0 mi SSE 4.6 mph - N/A   Clear
9:54 AM 33.8 °F 29.6 °F 30.2 °F 87% 29.58 in 5.0 mi South 4.6 mph - N/A   Clear
10:15 AM 35.2 °F 29.5 °F 30.2 °F 82% 29.57 in 7.0 mi SSW 6.9 mph - N/A   Clear
10:34 AM 36.1 °F 29.9 °F 30.2 °F 79% 29.57 in 7.0 mi SSW 8.1 mph - N/A   Clear
10:55 AM 36.5 °F 28.7 °F 30.2 °F 78% 29.57 in 7.0 mi South 11.5 mph - N/A   Clear
11:14 AM 37.2 °F 30.6 °F 30.2 °F 76% 29.56 in 7.0 mi South 9.2 mph - N/A   Clear
11:34 AM 38.3 °F 32.5 °F 30.6 °F 74% 29.55 in 7.0 mi South 8.1 mph - N/A   Clear
11:55 AM 38.7 °F 32.4 °F 30.4 °F 72% 29.54 in 7.0 mi SSW 9.2 mph - N/A   Clear
12:14 PM 39.6 °F 34.0 °F 30.7 °F 71% 29.54 in 10.0 mi SSW 8.1 mph - N/A   Clear
12:34 PM 39.7 °F 33.2 °F 30.6 °F 70% 29.52 in 10.0 mi SW 10.4 mph - N/A   Clear
12:55 PM 40.1 °F 33.2 °F 30.7 °F 69% 29.52 in 7.0 mi SW 11.5 mph 18.4 mph N/A   Clear
1:14 PM 41.0 °F 33.1 °F 30.9 °F 67% 29.50 in 10.0 mi SW 15.0 mph 20.7 mph N/A   Clear
1:34 PM 41.7 °F 34.8 °F 31.1 °F 66% 29.48 in 10.0 mi SSW 12.7 mph 19.6 mph N/A   Clear
1:55 PM 43.0 °F 36.4 °F 31.5 °F 64% 29.47 in 10.0 mi SW 12.7 mph 19.6 mph N/A   Clear
2:14 PM 44.2 °F 37.3 °F 31.6 °F 61% 29.47 in 10.0 mi SW 15.0 mph 24.2 mph N/A   Clear
2:34 PM 44.1 °F 37.7 °F 31.6 °F 62% 29.45 in 10.0 mi SSW 12.7 mph 21.9 mph N/A   Clear
2:55 PM 44.6 °F 39.2 °F 31.6 °F 60% 29.45 in 10.0 mi SW 10.4 mph 18.4 mph N/A   Clear
3:14 PM 44.8 °F 39.9 °F 31.6 °F 60% 29.45 in 10.0 mi SW 9.2 mph - N/A   Clear
3:35 PM 45.5 °F 38.3 °F 31.8 °F 59% 29.45 in 10.0 mi WSW 17.3 mph 25.3 mph N/A   Clear
3:54 PM 45.0 °F 37.4 °F 32.0 °F 60% 29.45 in 10.0 mi WSW 18.4 mph 25.3 mph N/A   Clear
4:14 PM 44.1 °F 36.5 °F 32.0 °F 63% 29.45 in 10.0 mi WSW 17.3 mph 21.9 mph N/A   Clear
4:35 PM 44.1 °F 36.2 °F 32.0 °F 63% 29.45 in 10.0 mi SW 18.4 mph 25.3 mph N/A   Clear
4:54 PM 43.9 °F 37.2 °F 32.0 °F 63% 29.46 in 10.0 mi WSW 13.8 mph - N/A   Clear
5:14 PM 43.7 °F 36.9 °F 32.0 °F 63% 29.46 in 10.0 mi WSW 13.8 mph 23.0 mph N/A   Clear
5:35 PM 44.1 °F 36.8 °F 32.0 °F 63% 29.47 in 10.0 mi SW 16.1 mph 21.9 mph N/A   Clear
5:54 PM 44.4 °F 39.0 °F 32.0 °F 62% 29.47 in 10.0 mi SW 10.4 mph - N/A   Clear
6:14 PM 44.6 °F 38.8 °F 32.2 °F 62% 29.47 in 10.0 mi SW 11.5 mph - N/A   Clear
6:35 PM 44.2 °F 38.0 °F 32.2 °F 63% 29.49 in 10.0 mi SW 12.7 mph - N/A   Clear
6:54 PM 44.1 °F 39.0 °F 32.2 °F 63% 29.50 in 10.0 mi WSW 9.2 mph - N/A   Clear
7:15 PM 43.7 °F 39.1 °F 32.0 °F 63% 29.50 in 10.0 mi WSW 8.1 mph - N/A   Clear
7:35 PM 42.1 °F 37.7 °F 32.0 °F 67% 29.52 in 10.0 mi WSW 6.9 mph - N/A   Clear
7:54 PM 41.9 °F 36.3 °F 32.0 °F 68% 29.52 in 10.0 mi SW 9.2 mph - N/A   Clear
8:15 PM 41.0 °F 37.1 °F 31.6 °F 69% 29.53 in 10.0 mi West 5.8 mph - N/A   Clear
8:34 PM 40.3 °F - 31.6 °F 71% 29.55 in 10.0 mi Calm Calm - N/A   Clear
8:54 PM 39.7 °F 35.6 °F 31.1 °F 71% 29.57 in 10.0 mi West 5.8 mph - N/A   Clear
9:15 PM 39.6 °F 37.4 °F 31.6 °F 73% 29.56 in 10.0 mi WSW 3.5 mph - N/A   Clear
9:34 PM 39.0 °F - 31.1 °F 73% 29.57 in 10.0 mi Calm Calm - N/A   Clear
9:54 PM 39.9 °F - 30.9 °F 70% 29.57 in 10.0 mi Calm Calm - N/A   Clear
10:15 PM 35.4 °F - 29.7 °F 80% 29.58 in 10.0 mi Calm Calm - N/A   Clear
10:34 PM 34.5 °F - 29.7 °F 82% 29.57 in 10.0 mi Calm Calm - N/A   Clear
10:54 PM 35.2 °F - 30.2 °F 82% 29.57 in 10.0 mi Calm Calm - N/A   Clear
11:15 PM 38.3 °F 32.5 °F 30.0 °F 72% 29.58 in 10.0 mi SW 8.1 mph - N/A   Clear
11:34 PM 38.3 °F 33.2 °F 30.0 °F 72% 29.58 in 10.0 mi SW 6.9 mph - N/A   Clear
11:54 PM 38.5 °F 34.1 °F 30.0 °F 72% 29.58 in 10.0 mi SW 5.8 mph - N/A   Clear